createdAt,value
2019-01-16T00:03:51.739Z,99698.72
2019-01-16T00:09:04.902Z,99692.80
2019-01-16T00:14:16.648Z,99683.05
2019-01-16T00:19:28.622Z,99676.97
2019-01-16T00:24:40.619Z,99666.67
2019-01-16T00:29:58.474Z,99658.87
2019-01-16T00:35:09.715Z,99653.60
2019-01-16T00:40:32.404Z,99642.02
2019-01-16T00:45:43.614Z,99628.80
2019-01-16T00:50:55.633Z,99628.51
2019-01-16T00:56:04.902Z,99618.44
2019-01-16T01:01:15.818Z,99612.31
2019-01-16T01:06:27.594Z,99606.64
2019-01-16T01:11:45.594Z,99600.68
2019-01-16T01:16:59.654Z,99585.41
2019-01-16T01:22:11.299Z,99578.64
2019-01-16T01:27:23.389Z,99576.61
2019-01-16T01:32:39.454Z,99564.78
2019-01-16T01:38:01.449Z,99556.97
2019-01-16T01:43:20.463Z,99549.27
2019-01-16T01:48:39.969Z,99532.01
2019-01-16T01:53:47.664Z,99527.91
2019-01-16T01:58:59.739Z,99515.32
2019-01-16T02:04:18.550Z,99507.87
2019-01-16T02:09:29.604Z,99498.20
2019-01-16T02:14:41.643Z,99493.13
2019-01-16T02:19:56.714Z,99492.67
2019-01-16T02:25:08.669Z,99469.03
2019-01-16T02:30:21.567Z,99459.99
2019-01-16T02:35:33.622Z,99448.27
2019-01-16T02:40:46.633Z,99441.94
2019-01-16T02:45:58.610Z,99451.21
2019-01-16T02:51:10.695Z,99428.02
2019-01-16T02:56:32.688Z,99425.18
2019-01-16T03:01:44.738Z,99420.84
2019-01-16T03:06:58.774Z,99402.98
2019-01-16T03:12:10.672Z,99404.20
2019-01-16T03:17:22.720Z,99392.09
2019-01-16T03:22:43.461Z,99386.48
2019-01-16T03:28:05.483Z,99376.55
2019-01-16T03:33:16.652Z,99360.34
2019-01-16T03:38:28.710Z,99353.30
2019-01-16T03:43:40.649Z,99344.03
2019-01-16T03:48:52.642Z,99330.58
2019-01-16T03:54:10.223Z,99325.95
2019-01-16T03:59:25.046Z,99317.50
2019-01-16T04:04:36.636Z,99303.88
2019-01-16T04:09:51.223Z,99295.73
2019-01-16T04:15:02.649Z,99288.14
2019-01-16T04:20:14.628Z,99278.55
2019-01-16T04:25:26.733Z,99282.66
2019-01-16T04:30:38.634Z,99270.34
2019-01-16T04:35:51.140Z,99268.41
2019-01-16T04:41:07.478Z,99256.58
2019-01-16T04:46:29.520Z,99267.90
2019-01-16T04:51:41.605Z,99258.64
2019-01-16T04:56:54.265Z,99241.36
2019-01-16T05:02:05.646Z,99239.33
2019-01-16T05:07:20.163Z,99229.88
2019-01-16T05:12:42.277Z,99225.77
2019-01-16T05:17:53.654Z,99219.79
2019-01-16T05:23:05.746Z,99209.31
2019-01-16T05:28:27.851Z,99194.91
2019-01-16T05:33:40.273Z,99188.53
2019-01-16T05:39:00.339Z,99175.39
2019-01-16T05:44:14.390Z,99178.71
2019-01-16T05:49:36.454Z,99182.91
2019-01-16T05:54:58.488Z,99172.21
2019-01-16T06:00:09.570Z,99159.65
2019-01-16T06:05:21.304Z,99154.03
2019-01-16T06:10:38.684Z,99134.13
2019-01-16T06:15:49.319Z,99142.84
2019-01-16T06:21:04.458Z,99129.75
2019-01-16T06:26:16.623Z,99124.72
2019-01-16T06:31:28.557Z,99122.92
2019-01-16T06:36:45.472Z,99123.51
2019-01-16T06:41:56.655Z,99121.66
2019-01-16T06:47:10.129Z,99106.63
2019-01-16T06:52:21.593Z,99098.11
2019-01-16T06:57:33.545Z,99082.19
2019-01-16T07:02:45.571Z,99088.75
2019-01-16T07:07:59.772Z,99084.95
2019-01-16T07:13:11.556Z,99080.51
2019-01-16T07:18:25.161Z,99079.31
2019-01-16T07:23:47.312Z,99082.83
2019-01-16T07:28:58.548Z,99081.52
2019-01-16T07:34:10.662Z,99076.27
2019-01-16T07:39:22.653Z,99056.34
2019-01-16T07:44:35.423Z,99055.87
2019-01-16T07:49:46.661Z,99055.19
2019-01-16T07:54:58.646Z,99054.22
2019-01-16T08:00:10.703Z,99047.41
2019-01-16T08:05:32.766Z,99048.05
2019-01-16T08:10:50.722Z,99035.09
2019-01-16T08:16:02.696Z,99033.27
2019-01-16T08:21:14.552Z,99034.39
2019-01-16T08:26:31.425Z,99025.09
2019-01-16T08:31:43.620Z,99034.27
2019-01-16T08:36:55.650Z,99034.09
2019-01-16T08:42:07.705Z,99032.56
2019-01-16T08:47:19.706Z,99035.55
2019-01-16T08:52:31.626Z,99028.74
2019-01-16T08:57:47.587Z,99036.11
2019-01-16T09:03:09.894Z,99029.84
2019-01-16T09:08:21.630Z,99029.26
2019-01-16T09:13:33.610Z,99028.58
2019-01-16T09:18:46.872Z,99029.42
2019-01-16T09:23:58.650Z,99038.64
2019-01-16T09:29:10.705Z,99036.35
2019-01-16T09:34:22.671Z,99035.70
2019-01-16T09:39:44.734Z,99038.69
2019-01-16T09:44:56.653Z,99050.89
2019-01-16T09:50:18.822Z,99057.88
2019-01-16T09:55:30.587Z,99044.36
2019-01-16T10:00:43.420Z,99053.61
2019-01-16T10:06:01.639Z,99058.16
2019-01-16T10:11:23.682Z,99055.49
2019-01-16T10:16:35.578Z,99059.46
2019-01-16T10:21:50.088Z,99069.95
2019-01-16T10:27:05.717Z,99077.63
2019-01-16T10:32:18.014Z,99077.72
2019-01-16T10:37:33.008Z,99077.03
2019-01-16T10:42:44.730Z,99089.61
2019-01-16T10:47:54.488Z,99089.61
2019-01-16T10:53:05.563Z,99090.47
2019-01-16T10:58:23.847Z,99092.75
2019-01-16T11:03:43.755Z,99096.41
2019-01-16T11:09:05.708Z,99078.52
2019-01-16T11:14:24.528Z,99093.02
2019-01-16T11:19:45.958Z,99092.25
2019-01-16T11:24:57.273Z,99092.68
2019-01-16T11:30:08.583Z,99107.56
2019-01-16T11:35:21.531Z,99095.64
2019-01-16T11:40:37.082Z,99103.97
2019-01-16T11:45:47.777Z,99092.98
2019-01-16T11:51:03.379Z,99101.98
2019-01-16T11:56:15.793Z,99105.09
2019-01-16T12:01:35.577Z,99106.47
2019-01-16T12:06:47.463Z,99097.20
2019-01-16T12:12:00.672Z,99080.13
2019-01-16T12:17:13.239Z,99087.33
2019-01-16T12:22:24.647Z,99087.53
2019-01-16T12:27:36.467Z,99091.43
2019-01-16T12:32:46.484Z,99076.64
2019-01-16T12:38:05.461Z,99079.00
2019-01-16T12:43:17.583Z,99068.14
2019-01-16T12:48:39.717Z,99062.08
2019-01-16T12:53:51.618Z,99080.46
2019-01-16T12:59:03.729Z,99083.25
2019-01-16T13:04:15.658Z,99077.27
2019-01-16T13:09:29.097Z,99072.59
2019-01-16T13:14:40.278Z,99084.77
2019-01-16T13:19:51.634Z,99090.67
2019-01-16T13:25:03.654Z,99079.24
2019-01-16T13:30:27.713Z,99080.09
2019-01-16T13:35:39.653Z,99067.81
2019-01-16T13:41:01.742Z,99061.83
2019-01-16T13:46:13.548Z,99058.34
2019-01-16T13:51:24.701Z,99054.38
2019-01-16T13:56:36.147Z,99051.31
2019-01-16T14:01:46.438Z,99046.94
2019-01-16T14:06:57.617Z,99046.69
2019-01-16T14:12:11.058Z,99050.61
2019-01-16T14:17:29.982Z,99050.80
2019-01-16T14:22:44.450Z,99050.70
2019-01-16T14:27:59.637Z,99043.06
2019-01-16T14:33:12.023Z,99034.08
2019-01-16T14:38:23.633Z,99024.68
2019-01-16T14:43:45.642Z,99029.23
2019-01-16T14:48:55.493Z,99035.47
2019-01-16T14:54:11.837Z,99033.34
2019-01-16T14:59:29.579Z,99039.70
2019-01-16T15:04:42.118Z,99039.00
2019-01-16T15:09:53.380Z,99043.25
2019-01-16T15:15:11.513Z,99046.47
2019-01-16T15:20:31.325Z,99022.91
2019-01-16T15:25:42.532Z,99029.76
2019-01-16T15:30:54.575Z,99027.41
2019-01-16T15:36:16.948Z,99024.78
2019-01-16T15:41:36.921Z,99029.30
2019-01-16T15:46:49.617Z,99037.53
2019-01-16T15:52:12.841Z,99027.98
2019-01-16T15:57:20.683Z,99025.77
2019-01-16T16:02:46.634Z,99023.98
2019-01-16T16:08:05.037Z,99026.08
2019-01-16T16:13:24.413Z,99017.69
2019-01-16T16:18:35.686Z,99021.14
2019-01-16T16:23:47.707Z,99019.11
2019-01-16T16:28:59.557Z,99015.14
2019-01-16T16:34:11.668Z,99012.53
2019-01-16T16:39:23.587Z,99004.18
2019-01-16T16:44:34.947Z,99004.04
2019-01-16T16:49:45.687Z,99005.66
2019-01-16T16:55:07.682Z,98997.80
2019-01-16T17:00:25.620Z,98995.33
2019-01-16T17:05:37.797Z,98988.66
2019-01-16T17:10:50.181Z,98973.59
2019-01-16T17:16:06.202Z,98971.81
2019-01-16T17:21:20.682Z,98959.14
2019-01-16T17:26:32.938Z,98972.40
2019-01-16T17:31:47.823Z,98971.70
2019-01-16T17:36:59.683Z,98970.13
2019-01-16T17:42:12.102Z,98968.53
2019-01-16T17:47:23.683Z,98964.91
2019-01-16T17:52:38.871Z,98969.11
2019-01-16T17:57:48.746Z,98962.70
2019-01-16T18:03:00.638Z,98961.88
2019-01-16T18:08:12.998Z,98957.95
2019-01-16T18:13:25.358Z,98967.24
2019-01-16T18:18:39.746Z,98964.83
2019-01-16T18:23:51.621Z,98981.05
2019-01-16T18:29:02.163Z,98973.34
2019-01-16T18:34:13.682Z,98964.73
2019-01-16T18:39:25.588Z,98950.52
2019-01-16T18:44:37.627Z,98956.68
2019-01-16T18:49:49.673Z,98959.31
2019-01-16T18:55:04.521Z,98947.73
2019-01-16T19:00:28.710Z,98942.27
2019-01-16T19:05:50.732Z,98952.15
2019-01-16T19:11:04.993Z,98965.88
2019-01-16T19:16:18.053Z,98955.78
2019-01-16T19:21:31.083Z,98952.16
2019-01-16T19:26:42.720Z,98955.56
2019-01-16T19:31:54.612Z,98968.19
2019-01-16T19:37:15.400Z,98955.38
2019-01-16T19:42:30.418Z,98940.81
2019-01-16T19:47:44.199Z,98966.78
2019-01-16T19:53:04.832Z,98968.00
2019-01-16T19:58:21.247Z,98968.17
2019-01-16T20:03:37.367Z,98957.73
2019-01-16T20:08:48.577Z,98963.52
2019-01-16T20:14:00.631Z,98985.07
2019-01-16T20:19:13.497Z,98979.02
2019-01-16T20:24:28.102Z,98996.21
2019-01-16T20:29:42.457Z,98988.27
2019-01-16T20:34:54.705Z,99001.78
2019-01-16T20:40:06.562Z,99012.13
2019-01-16T20:45:21.034Z,99018.41
2019-01-16T20:50:32.553Z,99028.58
2019-01-16T20:55:50.142Z,99022.52
2019-01-16T21:01:12.142Z,99022.38
2019-01-16T21:06:29.308Z,99029.42
2019-01-16T21:11:40.700Z,99044.20
2019-01-16T21:16:52.567Z,99036.92
2019-01-16T21:22:13.943Z,99057.99
2019-01-16T21:27:25.258Z,99054.93
2019-01-16T21:32:36.432Z,99075.45
2019-01-16T21:37:52.888Z,99071.78
2019-01-16T21:43:04.627Z,99081.93
2019-01-16T21:48:16.618Z,99087.19
2019-01-16T21:53:30.470Z,99097.91
2019-01-16T21:58:49.177Z,99105.92
2019-01-16T22:04:02.566Z,99105.12
2019-01-16T22:09:15.973Z,99112.23
2019-01-16T22:14:26.398Z,99102.47
2019-01-16T22:19:48.374Z,99127.74
2019-01-16T22:25:10.462Z,99118.90
2019-01-16T22:30:26.197Z,99122.53
2019-01-16T22:35:48.202Z,99132.20
2019-01-16T22:40:59.554Z,99152.08
2019-01-16T22:46:11.575Z,99135.41
2019-01-16T22:51:23.606Z,99156.05
2019-01-16T22:56:36.612Z,99191.30
2019-01-16T23:01:58.773Z,99188.38
2019-01-16T23:07:10.552Z,99174.25
2019-01-16T23:12:26.943Z,99184.61
2019-01-16T23:17:38.594Z,99196.03
2019-01-16T23:22:52.313Z,99202.30
2019-01-16T23:28:03.628Z,99213.49
2019-01-16T23:33:17.362Z,99229.82
2019-01-16T23:38:28.629Z,99234.95
2019-01-16T23:43:40.612Z,99234.16
2019-01-16T23:48:58.964Z,99234.48
2019-01-16T23:54:12.540Z,99234.03
2019-01-16T23:59:31.544Z,99250.82
